Enter the Airport ICAO Code

Search by Airport or City

Current Weather

FIMP | Sir Seewoosagur Ramgoolam International Airport

Plaine Magnien, Mauritius

Last Update 35 Minutes Ago

Partly Cloudy Sky

Temperature of 22 ºC

Light to Moderate Winds from East

Temperature

22 ºC

Dew Point Temperature

15 ºC

Relative Humidity

64.67 %

Wind Direction

East (110º, Without Significant Variations)

Wind Velocity

11 km/h (06 kt)

Gusts

None

Visibility

Greater than 10 Kilometers

Sea Level Pressure

1022 hPa (Hectopascals)

Layers of Clouds

30% to 60% of Sky Covered from 549 mts (1800 ft) Above Ground Level.

METAR FIMP 211400Z 11006KT 9999 SCT018 22/15 Q1022

Weather Forecast

FIMP | Sir Seewoosagur Ramgoolam International Airport

Plaine Magnien, Mauritius

Forecast valid for the next 27 Hours

From now on it is expected:

Partly Cloudy Sky

Moderate Winds from SouthEast

In 16 hours it is expected the begining of 3 hours with intermittent periods of:

Light Rain

Maximum Temperature

No Data

Minimum Temperature

No Data

TAF FIMP 211105Z 2112/2218 12010KT 9999 SCT017 PROB30 TEMPO 2207/2210 7000 -SHRA BKN015